Time;durP1;ratioP1;P1;durP2;ratioP2;P2;SDS_P1;SDS_P2;PMS_P1;PMS_P2;Temp;Humidity;BMP_temperature;BMP_pressure;BME280_temperature;BME280_humidity;BME280_pressure;Samples;Min_cycle;Max_cycle;Signal;HPM_P1;HPM_P2
2022/10/24 00:01:42;;;;;;;6.37;4.15;;;;;;;14.53;100.00;100044.59;3011168;77;21447;-85
2022/10/24 00:05:46;;;;;;;6.30;4.92;;;;;;;14.66;100.00;100053.05;2990236;77;21547;-86
2022/10/24 00:09:48;;;;;;;11.53;6.67;;;;;;;14.67;100.00;100044.53;3021084;77;21035;-85
2022/10/24 00:13:50;;;;;;;8.85;5.97;;;;;;;14.78;100.00;100044.78;2888851;77;21831;-85
2022/10/24 00:17:51;;;;;;;12.23;7.22;;;;;;;14.87;100.00;100031.76;2978991;78;21465;-85
2022/10/24 00:21:52;;;;;;;9.00;6.67;;;;;;;14.88;100.00;100028.08;2971751;75;21042;-85
2022/10/24 00:25:53;;;;;;;8.25;6.25;;;;;;;14.87;100.00;100033.09;3009976;77;20956;-85
2022/10/24 00:29:55;;;;;;;9.38;6.60;;;;;;;14.90;100.00;100014.03;3029556;77;21015;-85
2022/10/24 00:33:58;;;;;;;7.05;5.75;;;;;;;14.96;100.00;99992.47;3032747;77;21088;-85
2022/10/24 00:37:59;;;;;;;12.10;5.45;;;;;;;14.98;100.00;99975.73;2972472;77;21023;-85
2022/10/24 00:42:00;;;;;;;10.75;7.28;;;;;;;15.04;100.00;99979.13;3007789;77;21079;-85
2022/10/24 00:46:03;;;;;;;9.65;6.97;;;;;;;15.16;100.00;99974.30;2994518;77;21011;-86
2022/10/24 00:50:13;;;;;;;11.53;7.70;;;;;;;15.26;100.00;99970.13;2902293;78;21034;-85
2022/10/24 00:54:16;;;;;;;12.65;7.03;;;;;;;15.39;100.00;99965.63;3022476;77;21007;-85
2022/10/24 00:58:22;;;;;;;8.35;6.00;;;;;;;15.47;100.00;99960.27;3027999;76;20994;-85
2022/10/24 01:02:24;;;;;;;;;;;;;;;15.16;100.00;99939.95;3010824;77;21015;-85
2022/10/24 01:06:59;;;;;;;5.03;4.53;;;;;;;14.93;100.00;99936.04;3040944;76;20153;-85
2022/10/24 01:11:17;;;;;;;7.85;6.10;;;;;;;14.81;100.00;99928.81;3012757;77;20966;-85
2022/10/24 01:15:35;;;;;;;8.68;6.15;;;;;;;14.78;100.00;99951.08;2898070;80;21585;-85
2022/10/24 01:20:08;;;;;;;6.75;5.85;;;;;;;14.73;100.00;99931.95;2941780;79;21062;-85
2022/10/24 01:24:59;;;;;;;9.55;6.22;;;;;;;14.67;100.00;99922.73;2869820;81;21097;-85
2022/10/24 01:29:42;;;;;;;10.32;5.42;;;;;;;14.66;100.00;99929.08;2876127;81;21081;-85
2022/10/24 01:33:50;;;;;;;9.73;5.80;;;;;;;14.67;100.00;99921.39;2928456;79;21139;-84
2022/10/24 01:38:00;;;;;;;8.90;6.20;;;;;;;14.70;100.00;99922.40;2959676;79;21019;-85
2022/10/24 01:42:03;;;;;;;7.78;5.90;;;;;;;14.75;100.00;99915.27;2924465;79;21653;-85
2022/10/24 01:46:16;;;;;;;6.05;5.40;;;;;;;14.86;100.00;99921.64;2866356;80;21036;-85
2022/10/24 01:50:21;;;;;;;6.33;4.70;;;;;;;14.77;100.00;99927.98;2871452;78;21015;-85
2022/10/24 01:54:22;;;;;;;8.13;6.40;;;;;;;14.65;100.00;99926.89;2955280;78;21616;-85
2022/10/24 01:58:24;;;;;;;7.03;4.95;;;;;;;14.64;100.00;99926.55;3019573;76;21101;-85
2022/10/24 02:02:39;;;;;;;6.08;5.53;;;;;;;14.68;100.00;99925.22;3019099;77;20943;-85
2022/10/24 02:06:42;;;;;;;9.67;4.93;;;;;;;14.63;100.00;99922.69;2986768;77;21572;-85
2022/10/24 02:10:48;;;;;;;8.95;6.12;;;;;;;14.60;100.00;99909.63;2919128;78;21054;-85
2022/10/24 02:14:54;;;;;;;7.58;6.12;;;;;;;14.60;100.00;99909.14;3010537;77;21544;-85
2022/10/24 02:18:56;;;;;;;;;;;;;;;14.60;100.00;99897.10;3020604;77;21043;-85
2022/10/24 02:23:08;;;;;;;6.33;4.62;;;;;;;14.56;100.00;99893.08;2998442;77;20111;-85
2022/10/24 02:27:15;;;;;;;6.47;5.92;;;;;;;14.51;100.00;99893.55;3007902;78;21003;-84
2022/10/24 02:31:22;;;;;;;5.22;4.72;;;;;;;14.49;100.00;99900.91;3033681;76;21593;-85
2022/10/24 02:35:28;;;;;;;5.35;4.85;;;;;;;14.55;100.00;99900.77;3020130;77;21011;-85
2022/10/24 02:39:32;;;;;;;4.75;4.12;;;;;;;14.60;100.00;99898.44;3011861;78;20988;-85
2022/10/24 02:43:34;;;;;;;6.80;6.10;;;;;;;14.54;100.00;99893.71;3027678;77;21023;-84
2022/10/24 02:47:39;;;;;;;8.93;5.70;;;;;;;14.52;100.00;99909.09;3033140;77;21045;-85
2022/10/24 02:51:43;;;;;;;8.90;6.25;;;;;;;14.50;100.00;99903.92;3033467;76;21554;-85
2022/10/24 02:55:45;;;;;;;8.48;5.37;;;;;;;14.40;100.00;99900.52;3009939;77;21736;-84
2022/10/24 02:59:46;;;;;;;6.45;4.37;;;;;;;14.35;100.00;99898.34;3002352;76;21076;-85
2022/10/24 03:03:48;;;;;;;4.45;3.52;;;;;;;14.37;100.00;99895.48;2983433;76;21101;-84
2022/10/24 03:07:49;;;;;;;6.58;5.28;;;;;;;14.40;100.00;99898.70;3012040;77;21073;-86
2022/10/24 03:11:51;;;;;;;5.87;4.50;;;;;;;14.50;100.00;99901.73;2980016;78;21030;-85
2022/10/24 03:15:52;;;;;;;4.10;3.58;;;;;;;14.58;100.00;99887.06;2979101;77;21030;-85
2022/10/24 03:19:53;;;;;;;4.80;3.75;;;;;;;14.66;100.00;99891.09;2967536;77;21566;-86
2022/10/24 03:23:54;;;;;;;6.83;5.42;;;;;;;14.73;100.00;99879.75;3018876;76;21643;-86
2022/10/24 03:27:55;;;;;;;6.20;4.83;;;;;;;14.81;100.00;99883.30;2964923;77;21070;-85
2022/10/24 03:31:56;;;;;;;6.53;3.42;;;;;;;14.87;100.00;99880.98;2993851;77;21086;-85
2022/10/24 03:35:58;;;;;;;4.47;3.87;;;;;;;14.90;100.00;99875.30;2921767;79;21098;-85
2022/10/24 03:39:59;;;;;;;4.25;3.85;;;;;;;14.99;100.00;99875.15;2998443;77;21150;-85
2022/10/24 03:44:00;;;;;;;13.55;5.30;;;;;;;15.04;100.00;99873.33;2955295;77;21018;-85
2022/10/24 03:48:03;;;;;;;5.58;3.87;;;;;;;15.04;100.00;99872.47;2964117;77;20994;-85
2022/10/24 03:52:04;;;;;;;4.87;4.47;;;;;;;15.13;100.00;99867.44;3022513;76;21090;-85
2022/10/24 03:56:06;;;;;;;8.75;5.08;;;;;;;15.13;100.00;99868.78;3005680;77;21071;-85
2022/10/24 04:00:09;;;;;;;6.70;4.33;;;;;;;15.13;100.00;99875.48;3014182;77;21658;-85
2022/10/24 04:04:10;;;;;;;9.90;6.58;;;;;;;15.16;100.00;99872.98;3002343;77;21003;-85
2022/10/24 04:08:11;;;;;;;5.50;4.83;;;;;;;15.21;100.00;99864.79;3008818;77;21028;-85
2022/10/24 04:12:12;;;;;;;6.72;4.53;;;;;;;15.25;100.00;99851.39;2908384;77;21018;-85
2022/10/24 04:16:13;;;;;;;5.25;4.47;;;;;;;15.25;100.00;99854.07;3023185;77;21008;-85
2022/10/24 04:20:18;;;;;;;5.25;3.98;;;;;;;15.26;100.00;99841.00;2963099;77;21648;-85
2022/10/24 04:24:18;;;;;;;6.42;4.85;;;;;;;15.19;100.00;99852.55;2967851;77;21038;-84
2022/10/24 04:28:19;;;;;;;6.35;3.80;;;;;;;15.16;100.00;99859.59;2993758;78;21047;-84
2022/10/24 04:32:20;;;;;;;6.90;4.67;;;;;;;15.10;100.00;99875.81;3008071;77;20972;-84
2022/10/24 04:36:21;;;;;;;7.90;5.22;;;;;;;15.14;100.00;99890.58;3019984;77;21002;-85
2022/10/24 04:40:22;;;;;;;5.95;4.78;;;;;;;15.18;100.00;99892.41;2981193;76;21013;-85
2022/10/24 04:44:24;;;;;;;5.55;4.75;;;;;;;15.23;100.00;99902.11;2969414;78;21067;-85
2022/10/24 04:48:25;;;;;;;5.62;4.35;;;;;;;15.26;100.00;99902.63;2881256;78;21009;-85
2022/10/24 04:52:26;;;;;;;4.90;3.65;;;;;;;15.30;100.00;99899.61;2948982;79;20972;-85
2022/10/24 04:56:27;;;;;;;4.62;4.03;;;;;;;15.33;100.00;99900.62;2932453;78;21030;-85
2022/10/24 05:00:29;;;;;;;5.33;4.40;;;;;;;15.36;100.00;99905.15;3000649;78;21030;-85
2022/10/24 05:04:31;;;;;;;5.80;3.58;;;;;;;15.33;100.00;99908.17;3005399;77;20986;-85
2022/10/24 05:08:32;;;;;;;4.80;4.30;;;;;;;15.35;100.00;99908.02;2995306;78;21882;-85
2022/10/24 05:12:33;;;;;;;5.90;5.30;;;;;;;15.34;100.00;99904.48;3010370;77;20969;-85
2022/10/24 05:16:34;;;;;;;5.92;4.75;;;;;;;15.37;100.00;99900.64;3027394;77;21105;-85
2022/10/24 05:20:35;;;;;;;6.97;4.70;;;;;;;15.39;100.00;99895.44;3021727;77;21059;-85
2022/10/24 05:24:37;;;;;;;5.42;4.65;;;;;;;15.39;100.00;99890.59;3031648;76;21582;-85
2022/10/24 05:28:38;;;;;;;5.42;4.92;;;;;;;15.40;100.00;99896.28;3015927;77;21046;-85
2022/10/24 05:32:39;;;;;;;5.37;3.92;;;;;;;15.41;100.00;99892.08;3022430;78;21008;-85
2022/10/24 05:36:41;;;;;;;8.88;4.28;;;;;;;15.38;100.00;99891.59;2987515;78;20994;-85
2022/10/24 05:40:42;;;;;;;7.75;4.28;;;;;;;15.41;100.00;99894.76;2947829;78;21058;-85
2022/10/24 05:44:43;;;;;;;8.73;4.75;;;;;;;15.40;100.00;99895.77;2995348;78;21014;-84
2022/10/24 05:48:44;;;;;;;4.12;3.77;;;;;;;15.46;100.00;99910.87;3042110;76;21629;-85
2022/10/24 05:52:45;;;;;;;7.08;4.22;;;;;;;15.47;100.00;99913.36;3013626;78;20982;-85
2022/10/24 05:56:46;;;;;;;5.80;3.92;;;;;;;15.53;100.00;99911.38;3026068;78;21010;-84
2022/10/24 06:00:48;;;;;;;8.58;4.60;;;;;;;15.54;100.00;99905.00;3019113;77;21094;-84
2022/10/24 06:04:50;;;;;;;12.28;6.08;;;;;;;15.55;100.00;99902.66;3013805;77;21046;-85
2022/10/24 06:08:51;;;;;;;7.65;5.15;;;;;;;15.55;100.00;99905.83;3010159;77;21033;-85
2022/10/24 06:12:52;;;;;;;7.60;5.53;;;;;;;15.55;100.00;99917.41;2977517;77;21113;-85
2022/10/24 06:16:53;;;;;;;8.73;5.30;;;;;;;15.55;100.00;99913.38;2989916;78;21434;-85
2022/10/24 06:21:01;;;;;;;6.20;5.20;;;;;;;15.59;100.00;99925.92;2964406;77;21611;-85
2022/10/24 06:25:02;;;;;;;10.88;7.05;;;;;;;15.64;100.00;99936.16;2977226;77;21069;-85
2022/10/24 06:29:03;;;;;;;5.05;4.58;;;;;;;15.67;100.00;99940.69;2954527;77;21612;-85
2022/10/24 06:33:04;;;;;;;6.80;3.87;;;;;;;15.64;100.00;99934.81;2985347;77;21073;-85
2022/10/24 06:37:06;;;;;;;4.60;3.27;;;;;;;15.78;100.00;99929.27;2949382;76;21053;-85
2022/10/24 06:41:10;;;;;;;7.65;4.53;;;;;;;15.87;100.00;99926.94;3024823;77;21049;-85
2022/10/24 06:45:12;;;;;;;6.80;3.55;;;;;;;15.97;100.00;99929.47;2968774;78;20999;-85
2022/10/24 06:49:14;;;;;;;15.80;5.05;;;;;;;16.03;100.00;99936.00;3031088;77;21014;-85
2022/10/24 06:53:15;;;;;;;8.20;4.50;;;;;;;16.08;100.00;99933.13;3019540;77;20998;-85
2022/10/24 06:57:16;;;;;;;4.85;3.65;;;;;;;16.08;100.00;99933.64;3040257;77;21054;-84
2022/10/24 07:01:22;;;;;;;8.38;3.92;;;;;;;16.17;100.00;99946.53;3007134;78;21054;-85
2022/10/24 07:05:23;;;;;;;14.53;3.67;;;;;;;16.19;100.00;99941.83;2998065;77;21045;-85
2022/10/24 07:09:24;;;;;;;4.25;2.90;;;;;;;16.33;100.00;99941.63;2987028;77;21531;-85
2022/10/24 07:13:25;;;;;;;3.62;3.10;;;;;;;16.41;100.00;99943.78;2993412;77;20991;-85
2022/10/24 07:17:28;;;;;;;5.20;4.10;;;;;;;16.47;100.00;99934.70;3000408;78;21526;-85
2022/10/24 07:21:31;;;;;;;3.90;3.58;;;;;;;16.51;100.00;99928.81;3008699;78;21038;-85
2022/10/24 07:25:33;;;;;;;11.85;4.00;;;;;;;16.56;100.00;99937.70;3017921;77;21029;-86
2022/10/24 07:29:34;;;;;;;10.28;4.08;;;;;;;16.65;100.00;99936.64;3001977;77;21007;-83
2022/10/24 07:33:38;;;;;;;4.30;3.90;;;;;;;16.71;100.00;99943.17;3005944;78;20988;-83
2022/10/24 07:37:39;;;;;;;6.60;4.60;;;;;;;16.80;100.00;99938.60;3009491;78;20981;-86
2022/10/24 07:41:41;;;;;;;5.67;4.47;;;;;;;16.85;100.00;99941.59;2991242;77;21053;-85
2022/10/24 07:45:43;;;;;;;6.62;4.10;;;;;;;16.89;100.00;99941.56;3011819;78;21037;-85
2022/10/24 07:49:44;;;;;;;8.80;5.12;;;;;;;17.02;100.00;99938.85;3008425;77;21531;-85
2022/10/24 07:53:46;;;;;;;5.35;3.70;;;;;;;17.11;100.00;99941.31;2982241;78;21494;-85
2022/10/24 07:57:47;;;;;;;4.58;4.03;;;;;;;17.20;100.00;99949.34;2925912;78;21507;-85
2022/10/24 08:01:48;;;;;;;4.92;3.65;;;;;;;17.30;100.00;99947.77;2996666;78;20951;-85
2022/10/24 08:05:49;;;;;;;8.65;4.37;;;;;;;17.39;100.00;99940.81;2931326;79;21084;-85
2022/10/24 08:09:50;;;;;;;4.65;3.12;;;;;;;17.50;100.00;99938.70;2940128;78;20999;-85
2022/10/24 08:13:53;;;;;;;6.65;4.15;;;;;;;17.60;100.00;99929.91;2980964;77;20999;-85
2022/10/24 08:17:54;;;;;;;5.40;3.85;;;;;;;17.63;100.00;99935.41;3015950;77;20981;-85
2022/10/24 08:21:56;;;;;;;3.52;3.00;;;;;;;17.75;100.00;99936.66;2975282;79;21030;-85
2022/10/24 08:25:57;;;;;;;12.05;3.60;;;;;;;17.87;100.00;99931.67;2960682;77;21030;-85
2022/10/24 08:29:58;;;;;;;8.23;3.58;;;;;;;17.95;100.00;99932.93;2973792;77;21055;-86
2022/10/24 08:33:59;;;;;;;9.55;5.12;;;;;;;18.10;100.00;99936.19;3004780;78;21010;-85
2022/10/24 08:38:01;;;;;;;4.03;2.70;;;;;;;18.18;100.00;99933.43;2937201;78;21031;-86
2022/10/24 08:42:07;;;;;;;7.55;3.77;;;;;;;18.23;100.00;99946.31;2998003;78;21015;-86
2022/10/24 08:46:34;;;;;;;9.98;2.92;;;;;;;18.35;100.00;99941.30;2974419;78;21153;-86
2022/10/24 08:50:39;;;;;;;5.72;3.00;;;;;;;18.49;100.00;99942.34;2954325;78;21074;-86
2022/10/24 08:54:43;;;;;;;8.35;3.12;;;;;;;18.73;100.00;99928.25;3001349;77;21077;-86
2022/10/24 08:58:45;;;;;;;4.22;3.83;;;;;;;18.98;100.00;99933.66;3064364;76;21037;-86
2022/10/24 09:02:52;;;;;;;5.00;2.75;;;;;;;19.26;100.00;99942.37;2998557;77;21005;-86
2022/10/24 09:06:55;;;;;;;4.35;3.05;;;;;;;19.59;99.27;99937.47;2988776;77;21011;-85
2022/10/24 09:11:05;;;;;;;4.10;2.75;;;;;;;19.89;99.90;99941.37;2954268;78;21035;-86
2022/10/24 09:15:23;;;;;;;9.13;3.52;;;;;;;20.12;98.34;99929.83;3015659;77;21014;-86
2022/10/24 09:19:29;;;;;;;6.45;2.90;;;;;;;20.40;96.39;99939.75;2999382;78;21035;-86
2022/10/24 09:23:33;;;;;;;6.50;3.27;;;;;;;20.65;95.74;99928.47;2999994;77;21023;-86
2022/10/24 09:27:38;;;;;;;3.75;2.08;;;;;;;20.82;95.79;99934.88;3017957;77;20990;-86
2022/10/24 09:31:40;;;;;;;8.03;3.00;;;;;;;20.97;93.55;99932.86;3028875;77;21036;-86
2022/10/24 09:35:42;;;;;;;3.72;2.50;;;;;;;20.97;89.61;99934.21;3008395;77;20987;-86
2022/10/24 09:39:43;;;;;;;5.40;2.70;;;;;;;21.08;90.00;99926.02;2974370;78;21035;-86
2022/10/24 09:43:49;;;;;;;5.53;2.15;;;;;;;21.22;92.38;99917.95;2977843;77;21006;-86
2022/10/24 09:47:58;;;;;;;7.53;2.47;;;;;;;21.34;92.20;99915.47;3010833;77;20981;-85
2022/10/24 09:52:19;;;;;;;6.15;2.50;;;;;;;21.43;90.88;99921.52;3038061;76;21030;-85
2022/10/24 09:56:20;;;;;;;4.03;2.77;;;;;;;21.53;91.06;99914.66;2960051;78;20990;-85
2022/10/24 10:00:29;;;;;;;3.42;1.52;;;;;;;21.60;88.73;99911.11;3032191;76;21003;-85
2022/10/24 10:04:30;;;;;;;3.58;2.58;;;;;;;21.71;88.80;99909.18;2984716;77;20991;-84
2022/10/24 10:08:34;;;;;;;4.08;2.17;;;;;;;21.76;88.06;99907.20;3006170;76;21022;-84
2022/10/24 10:12:40;;;;;;;4.00;2.55;;;;;;;21.66;88.47;99907.63;3019449;77;21056;-84
2022/10/24 10:16:41;;;;;;;6.30;2.30;;;;;;;21.71;88.98;99910.53;3023730;77;21046;-85
2022/10/24 10:20:43;;;;;;;8.03;2.72;;;;;;;21.72;88.38;99914.91;2948440;78;21031;-85
2022/10/24 10:24:45;;;;;;;5.05;2.58;;;;;;;21.72;89.77;99913.55;2903063;78;21010;-85
2022/10/24 10:29:00;;;;;;;9.38;2.30;;;;;;;21.72;89.65;99911.38;2942598;78;21551;-85
2022/10/24 10:33:24;;;;;;;7.08;2.58;;;;;;;21.77;89.66;99911.04;2908939;78;21064;-85
2022/10/24 10:37:34;;;;;;;4.80;2.85;;;;;;;21.95;91.36;99916.34;2990869;77;20984;-85
2022/10/24 10:41:50;;;;;;;4.50;2.55;;;;;;;22.03;88.44;99908.02;2978996;77;20984;-85
2022/10/24 10:46:18;;;;;;;7.00;2.67;;;;;;;22.13;88.77;99909.44;2947667;79;21012;-85
2022/10/24 10:50:40;;;;;;;4.70;2.00;;;;;;;22.20;88.54;99907.03;2994187;77;21041;-84
2022/10/24 10:54:51;;;;;;;4.42;1.90;;;;;;;22.23;87.87;99912.56;3011459;78;21077;-85
2022/10/24 10:59:07;;;;;;;6.47;2.55;;;;;;;22.19;87.25;99914.00;3024183;76;21110;-84
2022/10/24 11:03:34;;;;;;;7.87;2.85;;;;;;;22.18;88.53;99906.92;2839617;82;21032;-84
2022/10/24 11:07:41;;;;;;;18.75;4.30;;;;;;;22.25;88.12;99904.52;2908765;80;21076;-84
2022/10/24 11:12:00;;;;;;;4.10;2.70;;;;;;;22.31;89.31;99905.55;2899827;81;21323;-84
2022/10/24 11:16:06;;;;;;;5.45;2.47;;;;;;;22.47;89.65;99895.32;2902089;80;21067;-85
2022/10/24 11:20:26;;;;;;;10.08;3.27;;;;;;;22.59;88.71;99891.41;2904857;80;21104;-84
2022/10/24 11:24:36;;;;;;;4.25;2.92;;;;;;;22.73;88.45;99897.59;2903021;80;22248;-85
2022/10/24 11:47:30;;;;;;;6.10;3.22;;;;;;;23.06;86.68;99876.25;2882297;79;21055;-84
2022/10/24 11:51:58;;;;;;;6.90;3.00;;;;;;;23.09;85.99;99874.45;2860052;80;21066;-83
2022/10/24 11:56:32;;;;;;;6.33;3.52;;;;;;;23.14;84.79;99875.98;2686542;85;21133;-84
2022/10/24 12:00:48;;;;;;;7.53;4.37;;;;;;;23.19;84.76;99875.33;2652451;87;21042;-84
2022/10/24 12:05:12;;;;;;;8.85;3.95;;;;;;;23.23;84.00;99866.55;2676155;86;21197;-84
2022/10/24 12:09:34;;;;;;;;;;;;;;;23.29;84.94;99861.31;2642599;87;21130;-84
2022/10/24 12:13:59;;;;;;;6.17;3.72;;;;;;;23.37;85.21;99852.88;2636572;87;20110;-83
2022/10/24 12:18:28;;;;;;;5.92;3.35;;;;;;;23.31;82.56;99845.64;2716565;85;21028;-84
2022/10/24 12:22:35;;;;;;;7.15;3.62;;;;;;;23.34;85.34;99841.13;2679359;86;21078;-84
2022/10/24 12:26:36;;;;;;;12.35;4.80;;;;;;;23.37;84.06;99838.80;2721984;85;21057;-84
2022/10/24 12:30:39;;;;;;;6.08;3.80;;;;;;;23.40;85.65;99837.54;2779627;79;21015;-84
2022/10/24 12:34:43;;;;;;;13.68;4.08;;;;;;;23.41;84.12;99833.77;2895793;80;21012;-84
2022/10/24 12:38:59;;;;;;;8.03;3.37;;;;;;;23.35;85.38;99836.00;2893899;80;21029;-84
2022/10/24 12:43:10;;;;;;;9.48;3.80;;;;;;;23.34;86.60;99832.47;2846968;81;21079;-84
2022/10/24 12:47:38;;;;;;;7.92;3.62;;;;;;;23.37;86.76;99824.39;2857540;80;21027;-84
2022/10/24 12:51:41;;;;;;;6.22;3.58;;;;;;;23.34;85.82;99816.70;2888255;80;21015;-84
2022/10/24 12:55:49;;;;;;;9.58;3.15;;;;;;;23.33;86.37;99821.82;2914397;79;21044;-85
2022/10/24 12:59:55;;;;;;;5.25;3.42;;;;;;;23.38;87.79;99824.69;2940824;79;20961;-85
2022/10/24 13:04:21;;;;;;;5.60;2.92;;;;;;;23.42;87.79;99831.36;2899141;80;21664;-85
2022/10/24 13:08:34;;;;;;;4.10;3.08;;;;;;;23.37;87.27;99833.89;2924682;79;21070;-85
2022/10/24 13:13:07;;;;;;;6.97;3.37;;;;;;;23.29;87.11;99841.80;2947742;78;20984;-86
2022/10/24 13:17:32;;;;;;;7.33;3.75;;;;;;;23.14;87.31;99842.61;2856233;81;21039;-86
2022/10/24 13:21:53;;;;;;;5.15;2.62;;;;;;;22.82;87.28;99840.20;2871957;80;21005;-86
2022/10/24 13:25:59;;;;;;;12.35;2.40;;;;;;;22.52;86.80;99845.36;2859808;80;21035;-86
2022/10/24 13:30:03;;;;;;;;;;;;;;;22.24;86.72;99850.02;2893907;80;21023;-86
2022/10/24 13:34:19;;;;;;;5.22;2.52;;;;;;;22.12;88.25;99844.98;2858394;81;20099;-86
2022/10/24 13:38:21;;;;;;;5.10;2.80;;;;;;;22.00;89.38;99847.48;2926968;80;21458;-86
2022/10/24 13:42:36;;;;;;;9.50;7.65;;;;;;;21.92;90.09;99850.44;2929321;80;21625;-87
2022/10/24 13:46:55;;;;;;;8.67;3.73;;;;;;;21.81;92.10;99863.59;2926032;79;21018;-87
2022/10/24 13:51:16;;;;;;;8.98;5.92;;;;;;;21.74;93.25;99878.98;2920063;79;20991;-86
2022/10/24 13:55:29;;;;;;;9.53;5.75;;;;;;;21.61;94.87;99870.33;2874662;81;21011;-86
2022/10/24 13:59:37;;;;;;;7.47;3.50;;;;;;;21.64;95.60;99874.50;2856624;81;21034;-86
2022/10/24 14:03:42;;;;;;;6.67;4.12;;;;;;;21.64;95.81;99863.67;2872972;80;20999;-86
2022/10/24 14:07:44;;;;;;;15.48;4.10;;;;;;;21.56;95.62;99859.30;2925513;80;21112;-86
2022/10/24 14:11:47;;;;;;;6.20;3.67;;;;;;;21.47;93.99;99865.95;2938306;80;21911;-86
2022/10/24 14:16:00;;;;;;;10.30;3.05;;;;;;;21.44;92.39;99854.20;2899879;79;21703;-86
2022/10/24 14:20:21;;;;;;;7.00;2.40;;;;;;;21.37;89.76;99855.03;2851734;81;21514;-86
2022/10/24 14:24:23;;;;;;;7.35;2.60;;;;;;;21.29;88.74;99848.46;2863593;81;21047;-86
2022/10/24 14:28:33;;;;;;;6.20;2.70;;;;;;;21.22;87.15;99852.54;2859448;81;21003;-86
2022/10/24 14:32:34;;;;;;;7.62;3.15;;;;;;;21.17;88.07;99844.19;2874528;80;21010;-86
2022/10/24 14:36:38;;;;;;;16.00;2.62;;;;;;;21.06;87.60;99841.58;2882600;81;21046;-86
2022/10/24 14:40:42;;;;;;;6.62;3.25;;;;;;;20.95;88.11;99833.56;2879715;80;21032;-86
2022/10/24 14:44:45;;;;;;;9.23;3.95;;;;;;;20.86;88.36;99837.51;2878544;81;21043;-86
2022/10/24 14:48:48;;;;;;;9.60;2.70;;;;;;;20.85;88.76;99848.00;2857882;81;21010;-86
2022/10/24 14:52:50;;;;;;;8.90;2.45;;;;;;;20.80;88.73;99850.47;2871390;81;21115;-86
2022/10/24 14:56:53;;;;;;;7.53;3.35;;;;;;;20.74;88.88;99858.02;2885734;81;21102;-86
2022/10/24 15:00:56;;;;;;;4.53;2.40;;;;;;;20.65;89.40;99852.81;2871322;80;21038;-86
2022/10/24 15:05:23;;;;;;;8.75;3.27;;;;;;;20.55;89.80;99849.64;2890465;80;21483;-86
2022/10/24 15:09:25;;;;;;;14.63;5.00;;;;;;;20.52;90.30;99852.75;2856072;81;21031;-86
2022/10/24 15:13:31;;;;;;;6.80;5.65;;;;;;;20.44;91.47;99850.20;2883047;80;21018;-87
2022/10/24 15:17:32;;;;;;;24.52;15.53;;;;;;;20.10;94.88;99856.80;2891886;80;21000;-86
2022/10/24 15:21:43;;;;;;;19.90;15.43;;;;;;;19.86;96.79;99855.41;2891111;80;20992;-87
2022/10/24 15:25:44;;;;;;;20.77;16.37;;;;;;;19.67;97.28;99861.81;2825376;83;21023;-86
2022/10/24 15:29:46;;;;;;;44.98;31.10;;;;;;;19.43;100.00;99861.19;2874838;81;20991;-86
2022/10/24 15:33:48;;;;;;;16.37;10.53;;;;;;;19.14;100.00;99857.63;2810184;82;21014;-86
2022/10/24 15:37:59;;;;;;;11.68;6.78;;;;;;;18.97;100.00;99858.37;2911969;80;21035;-86
2022/10/24 15:42:00;;;;;;;33.90;21.35;;;;;;;18.99;100.00;99864.43;2911001;79;21722;-86
2022/10/24 15:46:01;;;;;;;34.23;17.85;;;;;;;18.97;100.00;99871.31;2875467;80;21083;-87
2022/10/24 15:50:03;;;;;;;13.55;9.15;;;;;;;19.04;100.00;99880.00;2824845;82;21023;-86
2022/10/24 15:54:05;;;;;;;12.50;6.60;;;;;;;19.12;100.00;99894.72;2858873;81;21515;-86
2022/10/24 15:58:12;;;;;;;12.37;5.45;;;;;;;19.20;100.00;99881.11;2880330;79;21066;-86
2022/10/24 16:02:19;;;;;;;9.10;4.87;;;;;;;19.24;100.00;99881.03;2870651;80;21565;-86
2022/10/24 16:06:20;;;;;;;14.03;6.10;;;;;;;19.28;99.67;99878.80;2882352;80;21062;-87
2022/10/24 16:10:22;;;;;;;11.22;4.87;;;;;;;19.32;99.46;99886.00;2871519;80;21671;-86
2022/10/24 16:14:25;;;;;;;5.90;3.47;;;;;;;19.26;100.00;99880.36;2889367;80;21016;-85
2022/10/24 16:18:26;;;;;;;4.55;3.85;;;;;;;19.22;100.00;99876.88;2890523;79;21007;-86
2022/10/24 16:22:28;;;;;;;11.18;4.92;;;;;;;19.18;100.00;99881.81;2876470;80;21020;-85
2022/10/24 16:26:29;;;;;;;24.87;15.32;;;;;;;19.07;100.00;99875.60;2866897;80;20985;-86
2022/10/24 16:30:33;;;;;;;13.45;10.28;;;;;;;19.01;100.00;99864.22;2911733;79;21051;-85
2022/10/24 16:34:35;;;;;;;21.30;12.70;;;;;;;18.98;100.00;99868.12;2934431;79;20955;-87
2022/10/24 16:38:36;;;;;;;47.10;30.02;;;;;;;18.67;100.00;99859.30;2838218;80;21012;-85
2022/10/24 16:42:38;;;;;;;25.08;14.40;;;;;;;18.46;100.00;99880.76;2887576;80;21019;-84
2022/10/24 16:46:41;;;;;;;20.72;10.45;;;;;;;18.32;100.00;99916.95;2923283;79;23340;-84
2022/10/24 16:50:45;;;;;;;8.85;5.87;;;;;;;18.24;100.00;99915.68;2890291;79;21077;-84
2022/10/24 16:54:47;;;;;;;6.10;5.10;;;;;;;18.27;100.00;99923.38;2943206;78;21003;-85
2022/10/24 16:58:48;;;;;;;9.90;5.55;;;;;;;18.33;100.00;99925.36;2913975;79;21046;-84
2022/10/24 17:02:53;;;;;;;8.80;5.30;;;;;;;18.36;100.00;99920.94;2910200;80;20991;-85
2022/10/24 17:06:54;;;;;;;9.60;5.60;;;;;;;18.43;100.00;99913.45;2932585;78;21525;-86
2022/10/24 17:10:57;;;;;;;9.10;5.70;;;;;;;18.52;100.00;99913.69;2937014;79;21004;-86
2022/10/24 17:14:59;;;;;;;18.87;14.55;;;;;;;18.61;100.00;99909.04;2944336;78;21006;-86
2022/10/24 17:19:01;;;;;;;22.55;15.32;;;;;;;18.60;100.00;99899.29;2917136;79;21098;-86
2022/10/24 17:23:03;;;;;;;13.93;10.63;;;;;;;18.30;100.00;99900.65;2928504;79;21175;-85
2022/10/24 17:27:14;;;;;;;69.95;51.18;;;;;;;18.09;100.00;99892.80;2961874;78;21165;-86
2022/10/24 17:31:16;;;;;;;11.90;9.55;;;;;;;17.90;100.00;99895.51;2882746;80;21043;-86
2022/10/24 17:35:21;;;;;;;12.93;7.58;;;;;;;17.84;100.00;99889.81;2877913;80;21468;-85
2022/10/24 17:39:28;;;;;;;14.98;10.63;;;;;;;17.79;100.00;99890.89;2883710;80;21051;-86
2022/10/24 17:43:30;;;;;;;10.55;8.83;;;;;;;17.67;100.00;99909.32;2899724;79;21008;-86
2022/10/24 17:47:33;;;;;;;10.00;8.33;;;;;;;17.67;100.00;99891.84;2826225;80;21011;-86
2022/10/24 17:51:37;;;;;;;5.92;4.03;;;;;;;17.70;100.00;99939.88;2919994;79;21015;-86
2022/10/24 17:55:39;;;;;;;10.30;5.92;;;;;;;17.73;100.00;99940.05;2865919;79;20944;-86
2022/10/24 17:59:41;;;;;;;9.18;4.87;;;;;;;17.65;100.00;99938.75;2830104;80;21051;-86
2022/10/24 18:03:43;;;;;;;5.22;4.65;;;;;;;17.68;100.00;99945.11;2802994;80;21064;-86
2022/10/24 18:07:45;;;;;;;8.05;4.42;;;;;;;17.70;100.00;99931.00;2950416;78;20987;-86
2022/10/24 18:11:46;;;;;;;8.15;6.42;;;;;;;17.75;100.00;99933.13;2948565;79;21121;-86
2022/10/24 18:16:00;;;;;;;9.30;7.10;;;;;;;17.67;100.00;99940.25;2932173;79;21035;-86
2022/10/24 18:20:09;;;;;;;9.48;7.12;;;;;;;17.60;100.00;99943.84;2892777;79;20998;-86
2022/10/24 18:24:11;;;;;;;10.10;6.00;;;;;;;17.55;100.00;99945.22;2874868;78;21026;-85
2022/10/24 18:28:14;;;;;;;9.75;4.60;;;;;;;17.62;100.00;99953.41;2957257;78;20999;-85
2022/10/24 18:32:16;;;;;;;11.45;6.58;;;;;;;17.62;100.00;99939.97;2928842;78;21015;-86
2022/10/24 18:36:25;;;;;;;6.87;4.87;;;;;;;17.67;100.00;99944.78;2894915;80;21055;-87
2022/10/24 18:40:32;;;;;;;17.05;5.83;;;;;;;17.70;100.00;99951.17;2900571;80;21111;-87
2022/10/24 18:44:35;;;;;;;6.55;4.90;;;;;;;17.65;100.00;99958.42;2883537;80;20999;-87
2022/10/24 18:48:37;;;;;;;8.45;5.03;;;;;;;17.65;100.00;99949.51;2805619;81;21150;-86
2022/10/24 18:53:17;;;;;;;6.37;4.87;;;;;;;17.62;100.00;99949.38;2910833;79;21012;-87
2022/10/24 18:57:25;;;;;;;8.10;5.42;;;;;;;17.49;100.00;99949.14;2886066;80;21020;-86
2022/10/24 19:01:51;;;;;;;5.83;5.15;;;;;;;17.36;100.00;99947.05;2903412;80;21030;-86
2022/10/24 19:06:22;;;;;;;12.95;9.18;;;;;;;17.23;100.00;99939.05;2875153;80;21539;-86
2022/10/24 19:10:27;;;;;;;18.00;9.53;;;;;;;17.10;100.00;99942.33;2882400;81;21188;-85
2022/10/24 19:14:30;;;;;;;14.50;11.10;;;;;;;17.04;100.00;99943.05;2867402;80;21011;-84
2022/10/24 19:18:35;;;;;;;14.58;10.88;;;;;;;16.93;100.00;99934.84;2913551;79;21010;-85
2022/10/24 19:22:36;;;;;;;29.87;18.20;;;;;;;16.87;100.00;99940.91;2949666;79;21007;-86
2022/10/24 19:26:56;;;;;;;16.05;9.55;;;;;;;16.74;100.00;99939.31;2937531;79;21026;-87